sensor_id;sensor_type;location;lat;lon;timestamp;P1;durP1;ratioP1;P2;durP2;ratioP2
5022;SDS011;2530;47.990;7.866;2023-02-25T00:00:10;14.70;;;8.13;;
5022;SDS011;2530;47.990;7.866;2023-02-25T00:02:43;13.32;;;8.57;;
5022;SDS011;2530;47.990;7.866;2023-02-25T00:05:10;13.50;;;8.40;;
5022;SDS011;2530;47.990;7.866;2023-02-25T00:07:36;11.68;;;8.63;;
5022;SDS011;2530;47.990;7.866;2023-02-25T00:10:02;15.73;;;8.75;;
5022;SDS011;2530;47.990;7.866;2023-02-25T00:12:28;14.25;;;8.63;;
5022;SDS011;2530;47.990;7.866;2023-02-25T00:14:54;13.57;;;8.50;;
5022;SDS011;2530;47.990;7.866;2023-02-25T00:17:20;16.35;;;9.10;;
5022;SDS011;2530;47.990;7.866;2023-02-25T00:19:45;11.68;;;7.82;;
5022;SDS011;2530;47.990;7.866;2023-02-25T00:22:11;14.07;;;8.50;;
5022;SDS011;2530;47.990;7.866;2023-02-25T00:24:36;11.43;;;7.50;;
5022;SDS011;2530;47.990;7.866;2023-02-25T00:27:02;14.13;;;8.03;;
5022;SDS011;2530;47.990;7.866;2023-02-25T00:29:28;12.35;;;8.30;;
5022;SDS011;2530;47.990;7.866;2023-02-25T00:31:54;13.35;;;9.02;;
5022;SDS011;2530;47.990;7.866;2023-02-25T00:34:19;13.50;;;8.87;;
5022;SDS011;2530;47.990;7.866;2023-02-25T00:36:45;14.43;;;9.10;;
5022;SDS011;2530;47.990;7.866;2023-02-25T00:39:10;14.03;;;8.30;;
5022;SDS011;2530;47.990;7.866;2023-02-25T00:41:36;12.90;;;8.90;;
5022;SDS011;2530;47.990;7.866;2023-02-25T00:44:02;14.87;;;9.10;;
5022;SDS011;2530;47.990;7.866;2023-02-25T00:46:28;11.40;;;8.13;;
5022;SDS011;2530;47.990;7.866;2023-02-25T00:48:55;13.18;;;9.43;;
5022;SDS011;2530;47.990;7.866;2023-02-25T00:51:23;13.15;;;9.05;;
5022;SDS011;2530;47.990;7.866;2023-02-25T00:53:51;13.55;;;9.00;;
5022;SDS011;2530;47.990;7.866;2023-02-25T00:56:17;16.63;;;9.13;;
5022;SDS011;2530;47.990;7.866;2023-02-25T00:58:44;16.90;;;10.00;;
5022;SDS011;2530;47.990;7.866;2023-02-25T01:01:21;17.40;;;9.82;;
5022;SDS011;2530;47.990;7.866;2023-02-25T01:03:48;15.57;;;10.50;;
5022;SDS011;2530;47.990;7.866;2023-02-25T01:06:16;12.80;;;9.48;;
5022;SDS011;2530;47.990;7.866;2023-02-25T01:08:42;14.20;;;9.00;;
5022;SDS011;2530;47.990;7.866;2023-02-25T01:11:09;13.85;;;10.10;;
5022;SDS011;2530;47.990;7.866;2023-02-25T01:13:45;16.30;;;10.40;;
5022;SDS011;2530;47.990;7.866;2023-02-25T01:16:16;13.52;;;9.73;;
5022;SDS011;2530;47.990;7.866;2023-02-25T01:18:43;13.10;;;9.98;;
5022;SDS011;2530;47.990;7.866;2023-02-25T01:21:13;12.68;;;9.25;;
5022;SDS011;2530;47.990;7.866;2023-02-25T01:23:41;15.27;;;10.05;;
5022;SDS011;2530;47.990;7.866;2023-02-25T01:26:11;14.00;;;9.68;;
5022;SDS011;2530;47.990;7.866;2023-02-25T01:28:38;13.52;;;9.15;;
5022;SDS011;2530;47.990;7.866;2023-02-25T01:31:04;13.38;;;8.38;;
5022;SDS011;2530;47.990;7.866;2023-02-25T01:33:32;11.75;;;8.02;;
5022;SDS011;2530;47.990;7.866;2023-02-25T01:36:02;12.73;;;7.97;;
5022;SDS011;2530;47.990;7.866;2023-02-25T01:38:29;12.52;;;8.05;;
5022;SDS011;2530;47.990;7.866;2023-02-25T01:40:58;11.48;;;7.68;;
5022;SDS011;2530;47.990;7.866;2023-02-25T01:43:25;10.90;;;7.55;;
5022;SDS011;2530;47.990;7.866;2023-02-25T01:45:52;12.10;;;7.10;;
5022;SDS011;2530;47.990;7.866;2023-02-25T01:48:19;10.75;;;6.97;;
5022;SDS011;2530;47.990;7.866;2023-02-25T01:50:52;11.43;;;7.25;;
5022;SDS011;2530;47.990;7.866;2023-02-25T01:53:22;10.90;;;7.65;;
5022;SDS011;2530;47.990;7.866;2023-02-25T01:55:52;10.68;;;8.13;;
5022;SDS011;2530;47.990;7.866;2023-02-25T01:58:20;11.52;;;7.18;;
5022;SDS011;2530;47.990;7.866;2023-02-25T02:00:46;13.48;;;9.57;;
5022;SDS011;2530;47.990;7.866;2023-02-25T02:03:12;11.48;;;7.75;;
5022;SDS011;2530;47.990;7.866;2023-02-25T02:05:49;12.32;;;8.20;;
5022;SDS011;2530;47.990;7.866;2023-02-25T02:08:23;11.35;;;8.02;;
5022;SDS011;2530;47.990;7.866;2023-02-25T02:10:50;9.90;;;7.55;;
5022;SDS011;2530;47.990;7.866;2023-02-25T02:13:16;11.35;;;7.85;;
5022;SDS011;2530;47.990;7.866;2023-02-25T02:15:45;9.32;;;7.15;;
5022;SDS011;2530;47.990;7.866;2023-02-25T02:18:23;10.45;;;7.88;;
5022;SDS011;2530;47.990;7.866;2023-02-25T02:20:57;11.52;;;8.30;;
5022;SDS011;2530;47.990;7.866;2023-02-25T02:34:29;9.68;;;7.45;;
5022;SDS011;2530;47.990;7.866;2023-02-25T02:37:08;11.40;;;8.25;;
5022;SDS011;2530;47.990;7.866;2023-02-25T02:42:55;10.93;;;7.90;;
5022;SDS011;2530;47.990;7.866;2023-02-25T02:46:08;11.48;;;8.40;;
5022;SDS011;2530;47.990;7.866;2023-02-25T02:48:21;10.98;;;7.55;;
5022;SDS011;2530;47.990;7.866;2023-02-25T02:50:55;9.77;;;7.32;;
5022;SDS011;2530;47.990;7.866;2023-02-25T02:53:25;11.30;;;7.47;;
5022;SDS011;2530;47.990;7.866;2023-02-25T02:56:05;9.32;;;6.95;;
5022;SDS011;2530;47.990;7.866;2023-02-25T02:58:43;10.65;;;7.65;;
5022;SDS011;2530;47.990;7.866;2023-02-25T03:01:18;10.52;;;7.70;;
5022;SDS011;2530;47.990;7.866;2023-02-25T03:03:52;12.18;;;7.95;;
5022;SDS011;2530;47.990;7.866;2023-02-25T03:06:24;13.10;;;8.17;;
5022;SDS011;2530;47.990;7.866;2023-02-25T03:08:56;11.05;;;8.00;;
5022;SDS011;2530;47.990;7.866;2023-02-25T03:11:28;11.10;;;7.78;;
5022;SDS011;2530;47.990;7.866;2023-02-25T03:13:53;9.38;;;7.82;;
5022;SDS011;2530;47.990;7.866;2023-02-25T03:16:32;10.90;;;7.50;;
5022;SDS011;2530;47.990;7.866;2023-02-25T03:19:05;10.15;;;7.88;;
5022;SDS011;2530;47.990;7.866;2023-02-25T03:21:34;9.52;;;7.07;;
5022;SDS011;2530;47.990;7.866;2023-02-25T03:24:05;9.10;;;7.60;;
5022;SDS011;2530;47.990;7.866;2023-02-25T03:26:34;9.90;;;7.70;;
5022;SDS011;2530;47.990;7.866;2023-02-25T03:29:02;9.30;;;6.70;;
5022;SDS011;2530;47.990;7.866;2023-02-25T03:31:39;8.10;;;6.40;;
5022;SDS011;2530;47.990;7.866;2023-02-25T03:34:12;12.05;;;7.75;;
5022;SDS011;2530;47.990;7.866;2023-02-25T03:36:45;9.02;;;7.40;;
5022;SDS011;2530;47.990;7.866;2023-02-25T03:39:17;9.93;;;7.13;;
5022;SDS011;2530;47.990;7.866;2023-02-25T03:41:48;9.93;;;7.45;;
5022;SDS011;2530;47.990;7.866;2023-02-25T03:44:25;9.48;;;6.60;;
5022;SDS011;2530;47.990;7.866;2023-02-25T03:46:55;7.93;;;6.50;;
5022;SDS011;2530;47.990;7.866;2023-02-25T03:49:24;8.48;;;6.38;;
5022;SDS011;2530;47.990;7.866;2023-02-25T03:51:54;10.43;;;6.63;;
5022;SDS011;2530;47.990;7.866;2023-02-25T03:54:22;10.13;;;6.90;;
5022;SDS011;2530;47.990;7.866;2023-02-25T03:56:48;10.10;;;6.33;;
5022;SDS011;2530;47.990;7.866;2023-02-25T03:59:15;11.95;;;6.82;;
5022;SDS011;2530;47.990;7.866;2023-02-25T04:01:42;9.50;;;6.50;;
5022;SDS011;2530;47.990;7.866;2023-02-25T04:04:11;8.65;;;6.60;;
5022;SDS011;2530;47.990;7.866;2023-02-25T04:06:36;8.27;;;6.60;;
5022;SDS011;2530;47.990;7.866;2023-02-25T04:09:02;11.63;;;6.83;;
5022;SDS011;2530;47.990;7.866;2023-02-25T04:11:28;8.10;;;7.30;;
5022;SDS011;2530;47.990;7.866;2023-02-25T04:13:54;10.43;;;6.82;;
5022;SDS011;2530;47.990;7.866;2023-02-25T04:16:19;8.30;;;6.63;;
5022;SDS011;2530;47.990;7.866;2023-02-25T04:18:45;11.40;;;7.33;;
5022;SDS011;2530;47.990;7.866;2023-02-25T04:21:21;10.77;;;6.90;;
5022;SDS011;2530;47.990;7.866;2023-02-25T04:23:56;8.80;;;6.40;;
5022;SDS011;2530;47.990;7.866;2023-02-25T04:26:23;10.77;;;6.60;;
5022;SDS011;2530;47.990;7.866;2023-02-25T04:28:49;11.23;;;7.13;;
5022;SDS011;2530;47.990;7.866;2023-02-25T04:31:14;8.27;;;6.70;;
5022;SDS011;2530;47.990;7.866;2023-02-25T04:33:40;8.70;;;6.70;;
5022;SDS011;2530;47.990;7.866;2023-02-25T04:36:20;8.50;;;6.45;;
5022;SDS011;2530;47.990;7.866;2023-02-25T04:39:00;9.70;;;6.55;;
5022;SDS011;2530;47.990;7.866;2023-02-25T04:41:29;9.45;;;6.43;;
5022;SDS011;2530;47.990;7.866;2023-02-25T04:43:56;12.20;;;6.68;;
5022;SDS011;2530;47.990;7.866;2023-02-25T04:46:22;8.57;;;6.63;;
5022;SDS011;2530;47.990;7.866;2023-02-25T04:48:48;10.45;;;6.65;;
5022;SDS011;2530;47.990;7.866;2023-02-25T04:51:13;8.90;;;6.25;;
5022;SDS011;2530;47.990;7.866;2023-02-25T04:53:39;9.38;;;6.60;;
5022;SDS011;2530;47.990;7.866;2023-02-25T04:56:05;9.33;;;6.60;;
5022;SDS011;2530;47.990;7.866;2023-02-25T04:58:33;8.70;;;6.72;;
5022;SDS011;2530;47.990;7.866;2023-02-25T05:00:59;14.38;;;7.05;;
5022;SDS011;2530;47.990;7.866;2023-02-25T05:03:26;10.68;;;7.32;;
5022;SDS011;2530;47.990;7.866;2023-02-25T05:05:52;12.35;;;7.72;;
5022;SDS011;2530;47.990;7.866;2023-02-25T05:08:18;11.95;;;6.68;;
5022;SDS011;2530;47.990;7.866;2023-02-25T05:10:44;11.57;;;6.70;;
5022;SDS011;2530;47.990;7.866;2023-02-25T05:13:10;10.35;;;6.60;;
5022;SDS011;2530;47.990;7.866;2023-02-25T05:15:35;10.00;;;6.40;;
5022;SDS011;2530;47.990;7.866;2023-02-25T05:18:01;9.57;;;6.67;;
5022;SDS011;2530;47.990;7.866;2023-02-25T05:20:26;8.70;;;6.83;;
5022;SDS011;2530;47.990;7.866;2023-02-25T05:22:53;12.20;;;7.28;;
5022;SDS011;2530;47.990;7.866;2023-02-25T05:25:18;9.55;;;6.30;;
5022;SDS011;2530;47.990;7.866;2023-02-25T05:27:44;8.43;;;6.67;;
5022;SDS011;2530;47.990;7.866;2023-02-25T05:30:10;10.90;;;7.30;;
5022;SDS011;2530;47.990;7.866;2023-02-25T05:32:36;9.85;;;6.40;;
5022;SDS011;2530;47.990;7.866;2023-02-25T05:35:02;6.90;;;6.20;;
5022;SDS011;2530;47.990;7.866;2023-02-25T05:37:30;8.80;;;7.20;;
5022;SDS011;2530;47.990;7.866;2023-02-25T05:39:56;9.88;;;6.68;;
5022;SDS011;2530;47.990;7.866;2023-02-25T05:42:22;8.60;;;6.97;;
5022;SDS011;2530;47.990;7.866;2023-02-25T05:44:48;9.05;;;7.20;;
5022;SDS011;2530;47.990;7.866;2023-02-25T05:47:14;10.75;;;6.57;;
5022;SDS011;2530;47.990;7.866;2023-02-25T05:49:40;9.98;;;6.70;;
5022;SDS011;2530;47.990;7.866;2023-02-25T05:52:06;10.70;;;6.65;;
5022;SDS011;2530;47.990;7.866;2023-02-25T05:54:32;12.80;;;7.20;;
5022;SDS011;2530;47.990;7.866;2023-02-25T05:56:58;9.97;;;7.17;;
5022;SDS011;2530;47.990;7.866;2023-02-25T05:59:23;9.57;;;6.83;;
5022;SDS011;2530;47.990;7.866;2023-02-25T06:01:49;9.10;;;7.30;;
5022;SDS011;2530;47.990;7.866;2023-02-25T06:04:15;8.70;;;6.38;;
5022;SDS011;2530;47.990;7.866;2023-02-25T06:06:40;11.00;;;7.00;;
5022;SDS011;2530;47.990;7.866;2023-02-25T06:09:06;10.77;;;6.57;;
5022;SDS011;2530;47.990;7.866;2023-02-25T06:11:33;8.05;;;6.18;;
5022;SDS011;2530;47.990;7.866;2023-02-25T06:13:59;9.18;;;6.45;;
5022;SDS011;2530;47.990;7.866;2023-02-25T06:16:26;9.27;;;6.70;;
5022;SDS011;2530;47.990;7.866;2023-02-25T06:18:55;12.35;;;6.50;;
5022;SDS011;2530;47.990;7.866;2023-02-25T06:21:22;11.20;;;7.13;;
5022;SDS011;2530;47.990;7.866;2023-02-25T06:23:47;8.40;;;6.00;;
5022;SDS011;2530;47.990;7.866;2023-02-25T06:26:16;9.27;;;6.35;;
5022;SDS011;2530;47.990;7.866;2023-02-25T06:28:42;9.17;;;5.87;;
5022;SDS011;2530;47.990;7.866;2023-02-25T06:31:08;9.75;;;6.70;;
5022;SDS011;2530;47.990;7.866;2023-02-25T06:33:35;11.10;;;7.40;;
5022;SDS011;2530;47.990;7.866;2023-02-25T06:36:02;12.40;;;8.50;;
5022;SDS011;2530;47.990;7.866;2023-02-25T06:38:29;11.25;;;8.98;;
5022;SDS011;2530;47.990;7.866;2023-02-25T06:40:55;11.23;;;8.10;;
5022;SDS011;2530;47.990;7.866;2023-02-25T06:43:21;8.77;;;6.73;;
5022;SDS011;2530;47.990;7.866;2023-02-25T06:45:47;8.63;;;6.83;;
5022;SDS011;2530;47.990;7.866;2023-02-25T06:48:12;10.17;;;6.20;;
5022;SDS011;2530;47.990;7.866;2023-02-25T06:50:38;8.88;;;6.00;;
5022;SDS011;2530;47.990;7.866;2023-02-25T06:53:05;6.78;;;5.70;;
5022;SDS011;2530;47.990;7.866;2023-02-25T06:55:31;6.82;;;5.30;;
5022;SDS011;2530;47.990;7.866;2023-02-25T06:57:57;7.20;;;5.90;;
5022;SDS011;2530;47.990;7.866;2023-02-25T07:00:22;10.10;;;6.10;;
5022;SDS011;2530;47.990;7.866;2023-02-25T07:02:48;6.63;;;5.18;;
5022;SDS011;2530;47.990;7.866;2023-02-25T07:05:13;6.75;;;5.57;;
5022;SDS011;2530;47.990;7.866;2023-02-25T07:07:40;7.05;;;5.93;;
5022;SDS011;2530;47.990;7.866;2023-02-25T07:10:05;8.82;;;6.28;;
5022;SDS011;2530;47.990;7.866;2023-02-25T07:12:31;10.73;;;6.80;;
5022;SDS011;2530;47.990;7.866;2023-02-25T07:14:57;7.67;;;6.53;;
5022;SDS011;2530;47.990;7.866;2023-02-25T07:17:23;10.00;;;6.77;;
5022;SDS011;2530;47.990;7.866;2023-02-25T07:19:49;10.10;;;6.27;;
5022;SDS011;2530;47.990;7.866;2023-02-25T07:22:15;7.27;;;5.97;;
5022;SDS011;2530;47.990;7.866;2023-02-25T07:24:42;11.50;;;6.40;;
5022;SDS011;2530;47.990;7.866;2023-02-25T07:27:09;7.22;;;5.97;;
5022;SDS011;2530;47.990;7.866;2023-02-25T07:29:36;9.35;;;6.47;;
5022;SDS011;2530;47.990;7.866;2023-02-25T07:32:02;7.72;;;6.30;;
5022;SDS011;2530;47.990;7.866;2023-02-25T07:34:28;7.32;;;5.53;;
5022;SDS011;2530;47.990;7.866;2023-02-25T07:36:53;7.47;;;5.05;;
5022;SDS011;2530;47.990;7.866;2023-02-25T07:39:19;8.00;;;5.40;;
5022;SDS011;2530;47.990;7.866;2023-02-25T07:41:44;8.07;;;4.47;;
5022;SDS011;2530;47.990;7.866;2023-02-25T07:44:11;8.48;;;5.03;;
5022;SDS011;2530;47.990;7.866;2023-02-25T07:46:36;4.90;;;4.40;;
5022;SDS011;2530;47.990;7.866;2023-02-25T07:49:03;5.82;;;4.20;;
5022;SDS011;2530;47.990;7.866;2023-02-25T07:51:28;9.00;;;4.40;;
5022;SDS011;2530;47.990;7.866;2023-02-25T07:53:54;5.47;;;4.13;;
5022;SDS011;2530;47.990;7.866;2023-02-25T07:56:22;5.55;;;3.90;;
5022;SDS011;2530;47.990;7.866;2023-02-25T07:58:49;5.93;;;4.07;;
5022;SDS011;2530;47.990;7.866;2023-02-25T08:01:18;6.80;;;4.00;;
5022;SDS011;2530;47.990;7.866;2023-02-25T08:03:48;6.95;;;4.00;;
5022;SDS011;2530;47.990;7.866;2023-02-25T08:06:21;5.87;;;3.33;;
5022;SDS011;2530;47.990;7.866;2023-02-25T08:08:47;3.67;;;2.95;;
5022;SDS011;2530;47.990;7.866;2023-02-25T08:11:16;4.05;;;3.20;;
5022;SDS011;2530;47.990;7.866;2023-02-25T08:13:43;6.55;;;3.83;;
5022;SDS011;2530;47.990;7.866;2023-02-25T08:16:10;4.75;;;3.13;;
5022;SDS011;2530;47.990;7.866;2023-02-25T08:18:38;4.47;;;2.90;;
5022;SDS011;2530;47.990;7.866;2023-02-25T08:21:11;3.53;;;2.50;;
5022;SDS011;2530;47.990;7.866;2023-02-25T08:23:38;3.75;;;3.03;;
5022;SDS011;2530;47.990;7.866;2023-02-25T08:26:04;4.60;;;2.95;;
5022;SDS011;2530;47.990;7.866;2023-02-25T08:28:30;4.25;;;2.30;;
5022;SDS011;2530;47.990;7.866;2023-02-25T08:30:57;3.75;;;2.50;;
5022;SDS011;2530;47.990;7.866;2023-02-25T08:33:23;3.70;;;2.50;;
5022;SDS011;2530;47.990;7.866;2023-02-25T08:35:49;3.58;;;2.03;;
5022;SDS011;2530;47.990;7.866;2023-02-25T08:38:15;4.28;;;2.35;;
5022;SDS011;2530;47.990;7.866;2023-02-25T08:40:41;4.05;;;2.25;;
5022;SDS011;2530;47.990;7.866;2023-02-25T08:43:07;3.72;;;2.35;;
5022;SDS011;2530;47.990;7.866;2023-02-25T08:45:35;3.20;;;2.50;;
5022;SDS011;2530;47.990;7.866;2023-02-25T08:48:02;4.22;;;2.20;;
5022;SDS011;2530;47.990;7.866;2023-02-25T08:50:28;5.55;;;2.42;;
5022;SDS011;2530;47.990;7.866;2023-02-25T08:52:54;6.75;;;2.30;;
5022;SDS011;2530;47.990;7.866;2023-02-25T08:55:19;3.23;;;2.20;;
5022;SDS011;2530;47.990;7.866;2023-02-25T08:57:48;3.30;;;2.10;;
5022;SDS011;2530;47.990;7.866;2023-02-25T09:00:17;2.97;;;2.00;;
5022;SDS011;2530;47.990;7.866;2023-02-25T09:02:43;4.40;;;1.80;;
5022;SDS011;2530;47.990;7.866;2023-02-25T09:05:09;2.90;;;2.00;;
5022;SDS011;2530;47.990;7.866;2023-02-25T09:07:35;2.22;;;1.30;;
5022;SDS011;2530;47.990;7.866;2023-02-25T09:10:01;4.47;;;1.80;;
5022;SDS011;2530;47.990;7.866;2023-02-25T09:12:30;2.97;;;1.85;;
5022;SDS011;2530;47.990;7.866;2023-02-25T09:14:56;2.90;;;1.50;;
5022;SDS011;2530;47.990;7.866;2023-02-25T09:17:22;3.33;;;1.73;;
5022;SDS011;2530;47.990;7.866;2023-02-25T09:19:48;3.65;;;2.20;;
5022;SDS011;2530;47.990;7.866;2023-02-25T09:22:16;3.40;;;1.95;;
5022;SDS011;2530;47.990;7.866;2023-02-25T09:24:43;2.97;;;2.00;;
5022;SDS011;2530;47.990;7.866;2023-02-25T09:27:09;4.32;;;1.95;;
5022;SDS011;2530;47.990;7.866;2023-02-25T09:29:35;2.40;;;1.60;;
5022;SDS011;2530;47.990;7.866;2023-02-25T09:32:02;3.92;;;1.65;;
5022;SDS011;2530;47.990;7.866;2023-02-25T09:34:29;2.53;;;1.90;;
5022;SDS011;2530;47.990;7.866;2023-02-25T09:36:57;2.40;;;1.80;;
5022;SDS011;2530;47.990;7.866;2023-02-25T09:39:29;2.67;;;1.50;;
5022;SDS011;2530;47.990;7.866;2023-02-25T09:41:56;3.38;;;1.67;;
5022;SDS011;2530;47.990;7.866;2023-02-25T09:44:30;3.33;;;2.00;;
5022;SDS011;2530;47.990;7.866;2023-02-25T09:47:01;2.80;;;1.50;;
5022;SDS011;2530;47.990;7.866;2023-02-25T09:49:41;2.27;;;1.60;;
5022;SDS011;2530;47.990;7.866;2023-02-25T09:52:30;3.83;;;1.67;;
5022;SDS011;2530;47.990;7.866;2023-02-25T09:55:45;3.28;;;1.20;;
5022;SDS011;2530;47.990;7.866;2023-02-25T09:58:02;3.80;;;1.50;;
5022;SDS011;2530;47.990;7.866;2023-02-25T10:00:49;1.77;;;1.35;;
5022;SDS011;2530;47.990;7.866;2023-02-25T10:03:38;3.40;;;1.27;;
5022;SDS011;2530;47.990;7.866;2023-02-25T10:06:23;3.33;;;1.77;;
5022;SDS011;2530;47.990;7.866;2023-02-25T10:16:51;3.13;;;1.20;;
5022;SDS011;2530;47.990;7.866;2023-02-25T10:25:13;2.30;;;1.37;;
5022;SDS011;2530;47.990;7.866;2023-02-25T10:27:44;3.17;;;0.95;;
5022;SDS011;2530;47.990;7.866;2023-02-25T10:30:18;3.13;;;1.20;;
5022;SDS011;2530;47.990;7.866;2023-02-25T10:33:05;5.32;;;1.30;;
5022;SDS011;2530;47.990;7.866;2023-02-25T10:35:39;2.33;;;1.27;;
5022;SDS011;2530;47.990;7.866;2023-02-25T10:38:08;2.80;;;1.30;;
5022;SDS011;2530;47.990;7.866;2023-02-25T10:40:35;2.13;;;1.30;;
5022;SDS011;2530;47.990;7.866;2023-02-25T10:43:02;2.60;;;1.30;;
5022;SDS011;2530;47.990;7.866;2023-02-25T10:45:42;3.50;;;1.48;;
5022;SDS011;2530;47.990;7.866;2023-02-25T10:50:40;3.58;;;1.40;;
5022;SDS011;2530;47.990;7.866;2023-02-25T10:53:13;5.60;;;1.95;;
5022;SDS011;2530;47.990;7.866;2023-02-25T11:00:56;3.28;;;1.50;;
5022;SDS011;2530;47.990;7.866;2023-02-25T11:03:29;4.10;;;1.50;;
5022;SDS011;2530;47.990;7.866;2023-02-25T11:06:07;4.20;;;1.10;;
5022;SDS011;2530;47.990;7.866;2023-02-25T11:08:37;4.00;;;1.20;;
5022;SDS011;2530;47.990;7.866;2023-02-25T11:11:51;3.23;;;1.20;;
5022;SDS011;2530;47.990;7.866;2023-02-25T11:14:04;3.10;;;1.10;;
5022;SDS011;2530;47.990;7.866;2023-02-25T11:16:31;2.75;;;1.20;;
5022;SDS011;2530;47.990;7.866;2023-02-25T11:19:02;3.15;;;1.00;;
5022;SDS011;2530;47.990;7.866;2023-02-25T11:21:42;2.50;;;1.30;;
5022;SDS011;2530;47.990;7.866;2023-02-25T11:24:13;2.38;;;1.08;;
5022;SDS011;2530;47.990;7.866;2023-02-25T11:26:45;3.00;;;1.50;;
5022;SDS011;2530;47.990;7.866;2023-02-25T11:29:13;2.90;;;1.85;;
5022;SDS011;2530;47.990;7.866;2023-02-25T11:31:43;3.08;;;1.70;;
5022;SDS011;2530;47.990;7.866;2023-02-25T11:36:47;1.92;;;1.30;;
5022;SDS011;2530;47.990;7.866;2023-02-25T11:39:26;2.70;;;1.40;;
5022;SDS011;2530;47.990;7.866;2023-02-25T11:41:57;3.05;;;1.42;;
5022;SDS011;2530;47.990;7.866;2023-02-25T11:47:13;3.53;;;1.20;;
5022;SDS011;2530;47.990;7.866;2023-02-25T11:52:37;2.80;;;1.40;;
5022;SDS011;2530;47.990;7.866;2023-02-25T11:55:20;2.75;;;1.15;;
5022;SDS011;2530;47.990;7.866;2023-02-25T11:58:00;3.50;;;1.17;;
5022;SDS011;2530;47.990;7.866;2023-02-25T12:00:33;3.90;;;1.48;;
5022;SDS011;2530;47.990;7.866;2023-02-25T12:03:22;3.00;;;1.30;;
5022;SDS011;2530;47.990;7.866;2023-02-25T12:08:58;2.60;;;1.30;;
5022;SDS011;2530;47.990;7.866;2023-02-25T12:11:49;4.18;;;1.40;;
5022;SDS011;2530;47.990;7.866;2023-02-25T12:34:33;2.45;;;1.33;;
5022;SDS011;2530;47.990;7.866;2023-02-25T12:45:53;2.20;;;1.47;;
5022;SDS011;2530;47.990;7.866;2023-02-25T12:49:29;5.63;;;1.60;;
5022;SDS011;2530;47.990;7.866;2023-02-25T13:00:27;5.03;;;1.90;;
5022;SDS011;2530;47.990;7.866;2023-02-25T13:19:55;3.90;;;1.48;;
5022;SDS011;2530;47.990;7.866;2023-02-25T13:25:26;4.78;;;1.90;;
5022;SDS011;2530;47.990;7.866;2023-02-25T13:34:16;2.80;;;1.75;;
5022;SDS011;2530;47.990;7.866;2023-02-25T13:36:56;3.57;;;1.70;;
5022;SDS011;2530;47.990;7.866;2023-02-25T13:45:25;6.07;;;2.20;;
5022;SDS011;2530;47.990;7.866;2023-02-25T13:50:53;1.92;;;1.70;;
5022;SDS011;2530;47.990;7.866;2023-02-25T13:59:19;5.20;;;1.92;;
5022;SDS011;2530;47.990;7.866;2023-02-25T14:05:03;3.60;;;2.10;;
5022;SDS011;2530;47.990;7.866;2023-02-25T14:10:38;4.10;;;1.77;;
5022;SDS011;2530;47.990;7.866;2023-02-25T14:22:20;3.10;;;1.30;;
5022;SDS011;2530;47.990;7.866;2023-02-25T14:25:17;3.05;;;1.30;;
5022;SDS011;2530;47.990;7.866;2023-02-25T14:28:13;3.90;;;1.80;;
5022;SDS011;2530;47.990;7.866;2023-02-25T14:30:51;2.60;;;1.50;;
5022;SDS011;2530;47.990;7.866;2023-02-25T14:43:50;3.40;;;2.00;;
5022;SDS011;2530;47.990;7.866;2023-02-25T14:49:01;3.20;;;1.80;;
5022;SDS011;2530;47.990;7.866;2023-02-25T15:05:33;2.30;;;1.30;;
5022;SDS011;2530;47.990;7.866;2023-02-25T15:16:44;2.10;;;1.10;;
5022;SDS011;2530;47.990;7.866;2023-02-25T15:19:34;1.38;;;1.10;;
5022;SDS011;2530;47.990;7.866;2023-02-25T15:22:47;2.50;;;1.40;;
5022;SDS011;2530;47.990;7.866;2023-02-25T15:25:40;3.15;;;1.30;;
5022;SDS011;2530;47.990;7.866;2023-02-25T15:27:53;3.10;;;1.60;;
5022;SDS011;2530;47.990;7.866;2023-02-25T15:30:24;2.53;;;1.27;;
5022;SDS011;2530;47.990;7.866;2023-02-25T15:32:55;2.90;;;1.20;;
5022;SDS011;2530;47.990;7.866;2023-02-25T15:42:58;3.80;;;1.70;;
5022;SDS011;2530;47.990;7.866;2023-02-25T15:53:07;2.67;;;1.60;;
5022;SDS011;2530;47.990;7.866;2023-02-25T15:55:44;2.67;;;1.77;;
5022;SDS011;2530;47.990;7.866;2023-02-25T16:00:51;3.92;;;2.20;;
5022;SDS011;2530;47.990;7.866;2023-02-25T16:03:24;4.10;;;1.60;;
5022;SDS011;2530;47.990;7.866;2023-02-25T16:05:59;3.95;;;1.73;;
5022;SDS011;2530;47.990;7.866;2023-02-25T16:08:37;3.97;;;1.85;;
5022;SDS011;2530;47.990;7.866;2023-02-25T16:11:13;2.80;;;1.70;;
5022;SDS011;2530;47.990;7.866;2023-02-25T16:13:56;4.23;;;1.63;;
5022;SDS011;2530;47.990;7.866;2023-02-25T16:16:24;6.40;;;2.13;;
5022;SDS011;2530;47.990;7.866;2023-02-25T16:18:51;4.40;;;2.10;;
5022;SDS011;2530;47.990;7.866;2023-02-25T16:23:50;5.25;;;1.83;;
5022;SDS011;2530;47.990;7.866;2023-02-25T16:31:31;3.95;;;1.70;;
5022;SDS011;2530;47.990;7.866;2023-02-25T16:34:08;2.95;;;1.60;;
5022;SDS011;2530;47.990;7.866;2023-02-25T16:39:18;4.97;;;2.20;;
5022;SDS011;2530;47.990;7.866;2023-02-25T16:41:47;2.42;;;1.88;;
5022;SDS011;2530;47.990;7.866;2023-02-25T16:44:19;2.70;;;1.90;;
5022;SDS011;2530;47.990;7.866;2023-02-25T16:46:54;3.35;;;2.10;;
5022;SDS011;2530;47.990;7.866;2023-02-25T16:49:27;3.00;;;1.93;;
5022;SDS011;2530;47.990;7.866;2023-02-25T16:52:02;4.30;;;2.17;;
5022;SDS011;2530;47.990;7.866;2023-02-25T16:54:30;4.40;;;2.00;;
5022;SDS011;2530;47.990;7.866;2023-02-25T16:57:00;3.47;;;2.35;;
5022;SDS011;2530;47.990;7.866;2023-02-25T16:59:32;6.72;;;3.08;;
5022;SDS011;2530;47.990;7.866;2023-02-25T17:04:41;4.05;;;2.30;;
5022;SDS011;2530;47.990;7.866;2023-02-25T17:07:15;3.05;;;2.03;;
5022;SDS011;2530;47.990;7.866;2023-02-25T17:15:00;4.85;;;1.85;;
5022;SDS011;2530;47.990;7.866;2023-02-25T17:17:33;5.20;;;2.10;;
5022;SDS011;2530;47.990;7.866;2023-02-25T17:20:02;5.80;;;2.08;;
5022;SDS011;2530;47.990;7.866;2023-02-25T17:22:32;5.40;;;2.13;;
5022;SDS011;2530;47.990;7.866;2023-02-25T17:25:00;3.70;;;2.38;;
5022;SDS011;2530;47.990;7.866;2023-02-25T17:27:28;4.82;;;3.47;;
5022;SDS011;2530;47.990;7.866;2023-02-25T17:29:53;5.70;;;3.03;;
5022;SDS011;2530;47.990;7.866;2023-02-25T17:32:24;5.90;;;3.03;;
5022;SDS011;2530;47.990;7.866;2023-02-25T17:34:52;3.28;;;2.38;;
5022;SDS011;2530;47.990;7.866;2023-02-25T17:37:19;3.67;;;2.30;;
5022;SDS011;2530;47.990;7.866;2023-02-25T17:39:46;3.63;;;2.40;;
5022;SDS011;2530;47.990;7.866;2023-02-25T17:42:32;3.70;;;2.33;;
5022;SDS011;2530;47.990;7.866;2023-02-25T17:44:59;3.47;;;2.17;;
5022;SDS011;2530;47.990;7.866;2023-02-25T17:47:27;3.30;;;2.15;;
5022;SDS011;2530;47.990;7.866;2023-02-25T17:49:55;4.28;;;2.22;;
5022;SDS011;2530;47.990;7.866;2023-02-25T17:52:27;3.75;;;2.30;;
5022;SDS011;2530;47.990;7.866;2023-02-25T17:54:56;4.53;;;2.70;;
5022;SDS011;2530;47.990;7.866;2023-02-25T17:57:25;3.58;;;2.80;;
5022;SDS011;2530;47.990;7.866;2023-02-25T17:59:56;4.05;;;2.97;;
5022;SDS011;2530;47.990;7.866;2023-02-25T18:02:38;4.10;;;2.70;;
5022;SDS011;2530;47.990;7.866;2023-02-25T18:12:50;4.60;;;3.10;;
5022;SDS011;2530;47.990;7.866;2023-02-25T18:15:19;5.20;;;3.22;;
5022;SDS011;2530;47.990;7.866;2023-02-25T18:17:51;6.97;;;2.95;;
5022;SDS011;2530;47.990;7.866;2023-02-25T18:20:33;6.32;;;3.22;;
5022;SDS011;2530;47.990;7.866;2023-02-25T18:23:02;5.07;;;3.10;;
5022;SDS011;2530;47.990;7.866;2023-02-25T18:25:33;7.30;;;3.50;;
5022;SDS011;2530;47.990;7.866;2023-02-25T18:28:01;7.32;;;3.50;;
5022;SDS011;2530;47.990;7.866;2023-02-25T18:30:29;4.40;;;2.70;;
5022;SDS011;2530;47.990;7.866;2023-02-25T18:32:56;4.80;;;3.22;;
5022;SDS011;2530;47.990;7.866;2023-02-25T18:35:23;6.00;;;3.50;;
5022;SDS011;2530;47.990;7.866;2023-02-25T18:37:50;5.10;;;3.60;;
5022;SDS011;2530;47.990;7.866;2023-02-25T18:42:51;6.40;;;3.88;;
5022;SDS011;2530;47.990;7.866;2023-02-25T18:45:18;9.57;;;3.87;;
5022;SDS011;2530;47.990;7.866;2023-02-25T18:47:46;5.40;;;4.17;;
5022;SDS011;2530;47.990;7.866;2023-02-25T18:50:12;4.80;;;4.10;;
5022;SDS011;2530;47.990;7.866;2023-02-25T18:52:38;10.95;;;5.45;;
5022;SDS011;2530;47.990;7.866;2023-02-25T18:55:04;5.55;;;4.90;;
5022;SDS011;2530;47.990;7.866;2023-02-25T18:57:32;8.20;;;4.45;;
5022;SDS011;2530;47.990;7.866;2023-02-25T18:59:58;7.63;;;4.80;;
5022;SDS011;2530;47.990;7.866;2023-02-25T19:02:30;6.40;;;4.80;;
5022;SDS011;2530;47.990;7.866;2023-02-25T19:04:58;8.55;;;6.22;;
5022;SDS011;2530;47.990;7.866;2023-02-25T19:07:25;7.93;;;6.17;;
5022;SDS011;2530;47.990;7.866;2023-02-25T19:09:53;7.55;;;6.60;;